sensor_id;sensor_type;location;lat;lon;timestamp;P1;durP1;ratioP1;P2;durP2;ratioP2
8584;SDS011;7180;52.742;11.420;2024-02-04T00:00:06;11.93;;;8.80;;
8584;SDS011;7180;52.742;11.420;2024-02-04T00:02:32;11.33;;;9.13;;
8584;SDS011;7180;52.742;11.420;2024-02-04T00:04:57;9.93;;;8.93;;
8584;SDS011;7180;52.742;11.420;2024-02-04T00:07:22;10.57;;;9.23;;
8584;SDS011;7180;52.742;11.420;2024-02-04T00:09:48;11.47;;;9.80;;
8584;SDS011;7180;52.742;11.420;2024-02-04T00:12:13;10.30;;;9.23;;
8584;SDS011;7180;52.742;11.420;2024-02-04T00:14:38;11.00;;;9.20;;
8584;SDS011;7180;52.742;11.420;2024-02-04T00:17:03;9.37;;;8.50;;
8584;SDS011;7180;52.742;11.420;2024-02-04T00:19:29;9.37;;;8.40;;
8584;SDS011;7180;52.742;11.420;2024-02-04T00:21:54;9.60;;;8.80;;
8584;SDS011;7180;52.742;11.420;2024-02-04T00:24:19;9.63;;;8.63;;
8584;SDS011;7180;52.742;11.420;2024-02-04T00:26:45;10.30;;;9.50;;
8584;SDS011;7180;52.742;11.420;2024-02-04T00:29:10;10.27;;;9.13;;
8584;SDS011;7180;52.742;11.420;2024-02-04T00:31:35;10.00;;;9.10;;
8584;SDS011;7180;52.742;11.420;2024-02-04T00:34:01;11.50;;;9.77;;
8584;SDS011;7180;52.742;11.420;2024-02-04T00:36:26;12.30;;;9.27;;
8584;SDS011;7180;52.742;11.420;2024-02-04T00:38:51;10.00;;;9.00;;
8584;SDS011;7180;52.742;11.420;2024-02-04T00:41:17;9.43;;;8.63;;
8584;SDS011;7180;52.742;11.420;2024-02-04T00:43:42;10.10;;;8.93;;
8584;SDS011;7180;52.742;11.420;2024-02-04T00:46:07;10.63;;;9.63;;
8584;SDS011;7180;52.742;11.420;2024-02-04T00:48:35;12.77;;;9.40;;
8584;SDS011;7180;52.742;11.420;2024-02-04T00:51:00;10.30;;;9.20;;
8584;SDS011;7180;52.742;11.420;2024-02-04T00:53:26;10.07;;;9.03;;
8584;SDS011;7180;52.742;11.420;2024-02-04T00:55:53;10.93;;;9.80;;
8584;SDS011;7180;52.742;11.420;2024-02-04T00:58:18;10.40;;;9.43;;
8584;SDS011;7180;52.742;11.420;2024-02-04T01:00:44;11.73;;;10.17;;
8584;SDS011;7180;52.742;11.420;2024-02-04T01:03:09;10.33;;;9.43;;
8584;SDS011;7180;52.742;11.420;2024-02-04T01:05:34;10.77;;;9.67;;
8584;SDS011;7180;52.742;11.420;2024-02-04T01:07:59;10.40;;;9.40;;
8584;SDS011;7180;52.742;11.420;2024-02-04T01:10:25;10.33;;;9.33;;
8584;SDS011;7180;52.742;11.420;2024-02-04T01:12:51;10.33;;;9.50;;
8584;SDS011;7180;52.742;11.420;2024-02-04T01:15:16;10.70;;;9.80;;
8584;SDS011;7180;52.742;11.420;2024-02-04T01:17:41;10.83;;;9.80;;
8584;SDS011;7180;52.742;11.420;2024-02-04T01:20:07;11.00;;;10.07;;
8584;SDS011;7180;52.742;11.420;2024-02-04T01:22:32;11.43;;;10.27;;
8584;SDS011;7180;52.742;11.420;2024-02-04T01:24:58;11.67;;;10.67;;
8584;SDS011;7180;52.742;11.420;2024-02-04T01:27:23;11.70;;;10.60;;
8584;SDS011;7180;52.742;11.420;2024-02-04T01:29:48;11.33;;;10.23;;
8584;SDS011;7180;52.742;11.420;2024-02-04T01:32:13;12.07;;;10.57;;
8584;SDS011;7180;52.742;11.420;2024-02-04T01:34:39;14.80;;;10.57;;
8584;SDS011;7180;52.742;11.420;2024-02-04T01:37:05;11.53;;;10.03;;
8584;SDS011;7180;52.742;11.420;2024-02-04T01:39:30;11.57;;;10.53;;
8584;SDS011;7180;52.742;11.420;2024-02-04T01:41:55;11.37;;;10.47;;
8584;SDS011;7180;52.742;11.420;2024-02-04T01:44:20;11.53;;;10.47;;
8584;SDS011;7180;52.742;11.420;2024-02-04T01:46:47;11.80;;;10.57;;
8584;SDS011;7180;52.742;11.420;2024-02-04T01:49:13;11.67;;;10.67;;
8584;SDS011;7180;52.742;11.420;2024-02-04T01:51:38;12.20;;;11.07;;
8584;SDS011;7180;52.742;11.420;2024-02-04T01:54:04;11.87;;;10.77;;
8584;SDS011;7180;52.742;11.420;2024-02-04T01:56:30;11.40;;;10.43;;
8584;SDS011;7180;52.742;11.420;2024-02-04T01:58:56;11.53;;;10.53;;
8584;SDS011;7180;52.742;11.420;2024-02-04T02:01:23;12.00;;;10.90;;
8584;SDS011;7180;52.742;11.420;2024-02-04T02:03:48;12.83;;;11.47;;
8584;SDS011;7180;52.742;11.420;2024-02-04T02:06:16;12.70;;;10.97;;
8584;SDS011;7180;52.742;11.420;2024-02-04T02:08:42;11.63;;;10.63;;
8584;SDS011;7180;52.742;11.420;2024-02-04T02:11:18;12.00;;;10.83;;
8584;SDS011;7180;52.742;11.420;2024-02-04T02:13:51;12.77;;;10.60;;
8584;SDS011;7180;52.742;11.420;2024-02-04T02:16:22;11.37;;;10.47;;
8584;SDS011;7180;52.742;11.420;2024-02-04T02:18:53;11.50;;;10.57;;
8584;SDS011;7180;52.742;11.420;2024-02-04T02:21:32;11.80;;;10.63;;
8584;SDS011;7180;52.742;11.420;2024-02-04T02:26:59;10.80;;;9.83;;
8584;SDS011;7180;52.742;11.420;2024-02-04T02:29:24;10.90;;;10.00;;
8584;SDS011;7180;52.742;11.420;2024-02-04T02:31:49;11.83;;;10.70;;
8584;SDS011;7180;52.742;11.420;2024-02-04T02:34:15;10.77;;;9.93;;
8584;SDS011;7180;52.742;11.420;2024-02-04T02:36:45;10.93;;;10.03;;
8584;SDS011;7180;52.742;11.420;2024-02-04T02:39:17;11.07;;;10.10;;
8584;SDS011;7180;52.742;11.420;2024-02-04T02:41:47;11.57;;;10.43;;
8584;SDS011;7180;52.742;11.420;2024-02-04T02:44:16;11.03;;;10.03;;
8584;SDS011;7180;52.742;11.420;2024-02-04T02:46:42;10.73;;;9.47;;
8584;SDS011;7180;52.742;11.420;2024-02-04T02:49:07;10.70;;;9.60;;
8584;SDS011;7180;52.742;11.420;2024-02-04T02:51:33;10.17;;;9.20;;
8584;SDS011;7180;52.742;11.420;2024-02-04T02:53:59;11.57;;;10.37;;
8584;SDS011;7180;52.742;11.420;2024-02-04T02:56:24;10.93;;;9.93;;
8584;SDS011;7180;52.742;11.420;2024-02-04T02:58:49;9.97;;;9.10;;
8584;SDS011;7180;52.742;11.420;2024-02-04T03:01:14;10.40;;;9.50;;
8584;SDS011;7180;52.742;11.420;2024-02-04T03:03:40;10.23;;;9.27;;
8584;SDS011;7180;52.742;11.420;2024-02-04T03:06:05;11.23;;;9.70;;
8584;SDS011;7180;52.742;11.420;2024-02-04T03:08:31;10.50;;;9.47;;
8584;SDS011;7180;52.742;11.420;2024-02-04T03:10:56;10.87;;;9.33;;
8584;SDS011;7180;52.742;11.420;2024-02-04T03:13:22;10.53;;;9.63;;
8584;SDS011;7180;52.742;11.420;2024-02-04T03:15:47;10.57;;;9.60;;
8584;SDS011;7180;52.742;11.420;2024-02-04T03:18:12;10.23;;;9.23;;
8584;SDS011;7180;52.742;11.420;2024-02-04T03:20:38;10.27;;;9.40;;
8584;SDS011;7180;52.742;11.420;2024-02-04T03:23:03;10.43;;;9.47;;
8584;SDS011;7180;52.742;11.420;2024-02-04T03:25:28;10.93;;;9.90;;
8584;SDS011;7180;52.742;11.420;2024-02-04T03:27:54;10.60;;;9.67;;
8584;SDS011;7180;52.742;11.420;2024-02-04T03:30:19;10.93;;;10.00;;
8584;SDS011;7180;52.742;11.420;2024-02-04T03:32:45;10.83;;;9.60;;
8584;SDS011;7180;52.742;11.420;2024-02-04T03:35:10;10.67;;;9.87;;
8584;SDS011;7180;52.742;11.420;2024-02-04T03:37:35;10.80;;;9.80;;
8584;SDS011;7180;52.742;11.420;2024-02-04T03:40:00;10.80;;;9.80;;
8584;SDS011;7180;52.742;11.420;2024-02-04T03:42:26;10.93;;;9.83;;
8584;SDS011;7180;52.742;11.420;2024-02-04T03:44:51;11.20;;;10.10;;
8584;SDS011;7180;52.742;11.420;2024-02-04T03:47:16;12.53;;;10.40;;
8584;SDS011;7180;52.742;11.420;2024-02-04T03:49:41;11.07;;;9.97;;
8584;SDS011;7180;52.742;11.420;2024-02-04T03:52:07;10.93;;;9.70;;
8584;SDS011;7180;52.742;11.420;2024-02-04T03:54:32;10.60;;;9.50;;
8584;SDS011;7180;52.742;11.420;2024-02-04T03:56:57;11.03;;;9.93;;
8584;SDS011;7180;52.742;11.420;2024-02-04T03:59:22;11.50;;;10.40;;
8584;SDS011;7180;52.742;11.420;2024-02-04T04:01:48;10.97;;;9.97;;
8584;SDS011;7180;52.742;11.420;2024-02-04T04:04:14;11.00;;;10.10;;
8584;SDS011;7180;52.742;11.420;2024-02-04T04:06:40;11.97;;;10.70;;
8584;SDS011;7180;52.742;11.420;2024-02-04T04:09:06;11.00;;;10.07;;
8584;SDS011;7180;52.742;11.420;2024-02-04T04:11:32;11.47;;;10.47;;
8584;SDS011;7180;52.742;11.420;2024-02-04T04:13:57;12.20;;;10.93;;
8584;SDS011;7180;52.742;11.420;2024-02-04T04:16:22;11.93;;;10.80;;
8584;SDS011;7180;52.742;11.420;2024-02-04T04:18:48;12.67;;;10.87;;
8584;SDS011;7180;52.742;11.420;2024-02-04T04:21:14;12.07;;;10.90;;
8584;SDS011;7180;52.742;11.420;2024-02-04T04:23:39;12.23;;;11.13;;
8584;SDS011;7180;52.742;11.420;2024-02-04T04:26:05;12.40;;;11.20;;
8584;SDS011;7180;52.742;11.420;2024-02-04T04:28:30;12.13;;;11.03;;
8584;SDS011;7180;52.742;11.420;2024-02-04T04:30:56;12.40;;;11.27;;
8584;SDS011;7180;52.742;11.420;2024-02-04T04:33:21;13.53;;;11.90;;
8584;SDS011;7180;52.742;11.420;2024-02-04T04:35:47;13.17;;;11.83;;
8584;SDS011;7180;52.742;11.420;2024-02-04T04:38:12;14.50;;;12.10;;
8584;SDS011;7180;52.742;11.420;2024-02-04T04:40:37;12.80;;;11.77;;
8584;SDS011;7180;52.742;11.420;2024-02-04T04:43:03;13.37;;;11.60;;
8584;SDS011;7180;52.742;11.420;2024-02-04T04:45:28;13.57;;;12.27;;
8584;SDS011;7180;52.742;11.420;2024-02-04T04:47:53;14.43;;;12.50;;
8584;SDS011;7180;52.742;11.420;2024-02-04T04:50:19;15.43;;;12.83;;
8584;SDS011;7180;52.742;11.420;2024-02-04T04:52:44;15.00;;;13.60;;
8584;SDS011;7180;52.742;11.420;2024-02-04T04:55:11;15.47;;;13.77;;
8584;SDS011;7180;52.742;11.420;2024-02-04T04:57:36;14.80;;;13.13;;
8584;SDS011;7180;52.742;11.420;2024-02-04T05:00:02;15.20;;;13.60;;
8584;SDS011;7180;52.742;11.420;2024-02-04T05:02:31;18.13;;;13.27;;
8584;SDS011;7180;52.742;11.420;2024-02-04T05:04:57;16.53;;;13.33;;
8584;SDS011;7180;52.742;11.420;2024-02-04T05:07:22;15.83;;;13.17;;
8584;SDS011;7180;52.742;11.420;2024-02-04T05:09:47;15.30;;;13.90;;
8584;SDS011;7180;52.742;11.420;2024-02-04T05:12:12;14.50;;;13.20;;
8584;SDS011;7180;52.742;11.420;2024-02-04T05:14:38;14.37;;;13.03;;
8584;SDS011;7180;52.742;11.420;2024-02-04T05:17:04;14.73;;;13.20;;
8584;SDS011;7180;52.742;11.420;2024-02-04T05:19:30;14.97;;;13.13;;
8584;SDS011;7180;52.742;11.420;2024-02-04T05:21:55;16.13;;;13.30;;
8584;SDS011;7180;52.742;11.420;2024-02-04T05:24:20;15.07;;;13.50;;
8584;SDS011;7180;52.742;11.420;2024-02-04T05:26:45;15.17;;;13.70;;
8584;SDS011;7180;52.742;11.420;2024-02-04T05:29:11;19.23;;;14.00;;
8584;SDS011;7180;52.742;11.420;2024-02-04T05:31:42;15.17;;;13.70;;
8584;SDS011;7180;52.742;11.420;2024-02-04T05:34:08;15.33;;;13.80;;
8584;SDS011;7180;52.742;11.420;2024-02-04T05:36:34;14.93;;;13.60;;
8584;SDS011;7180;52.742;11.420;2024-02-04T05:39:12;14.37;;;12.97;;
8584;SDS011;7180;52.742;11.420;2024-02-04T05:41:39;15.10;;;13.80;;
8584;SDS011;7180;52.742;11.420;2024-02-04T05:44:05;14.97;;;13.53;;
8584;SDS011;7180;52.742;11.420;2024-02-04T05:46:31;14.50;;;13.27;;
8584;SDS011;7180;52.742;11.420;2024-02-04T05:48:56;15.13;;;13.60;;
8584;SDS011;7180;52.742;11.420;2024-02-04T05:51:22;15.70;;;14.07;;
8584;SDS011;7180;52.742;11.420;2024-02-04T05:53:47;15.37;;;13.77;;
8584;SDS011;7180;52.742;11.420;2024-02-04T05:56:12;14.27;;;13.17;;
8584;SDS011;7180;52.742;11.420;2024-02-04T05:58:39;15.00;;;13.60;;
8584;SDS011;7180;52.742;11.420;2024-02-04T06:01:04;14.60;;;13.30;;
8584;SDS011;7180;52.742;11.420;2024-02-04T06:03:29;15.97;;;13.27;;
8584;SDS011;7180;52.742;11.420;2024-02-04T06:05:55;14.67;;;13.10;;
8584;SDS011;7180;52.742;11.420;2024-02-04T06:08:20;14.50;;;13.00;;
8584;SDS011;7180;52.742;11.420;2024-02-04T06:10:45;14.67;;;13.07;;
8584;SDS011;7180;52.742;11.420;2024-02-04T06:13:11;14.30;;;12.97;;
8584;SDS011;7180;52.742;11.420;2024-02-04T06:15:36;15.53;;;13.20;;
8584;SDS011;7180;52.742;11.420;2024-02-04T06:18:01;15.63;;;13.10;;
8584;SDS011;7180;52.742;11.420;2024-02-04T06:20:27;14.97;;;13.37;;
8584;SDS011;7180;52.742;11.420;2024-02-04T06:22:52;14.93;;;13.37;;
8584;SDS011;7180;52.742;11.420;2024-02-04T06:25:17;14.80;;;13.40;;
8584;SDS011;7180;52.742;11.420;2024-02-04T06:27:42;13.37;;;12.07;;
8584;SDS011;7180;52.742;11.420;2024-02-04T06:30:08;15.10;;;12.80;;
8584;SDS011;7180;52.742;11.420;2024-02-04T06:32:33;14.77;;;12.57;;
8584;SDS011;7180;52.742;11.420;2024-02-04T06:34:58;14.40;;;12.90;;
8584;SDS011;7180;52.742;11.420;2024-02-04T06:37:24;14.17;;;12.77;;
8584;SDS011;7180;52.742;11.420;2024-02-04T06:39:50;14.10;;;12.67;;
8584;SDS011;7180;52.742;11.420;2024-02-04T06:42:15;13.17;;;11.87;;
8584;SDS011;7180;52.742;11.420;2024-02-04T06:44:44;12.30;;;11.20;;
8584;SDS011;7180;52.742;11.420;2024-02-04T06:47:10;13.13;;;11.77;;
8584;SDS011;7180;52.742;11.420;2024-02-04T06:49:37;12.43;;;11.13;;
8584;SDS011;7180;52.742;11.420;2024-02-04T06:52:02;12.50;;;11.40;;
8584;SDS011;7180;52.742;11.420;2024-02-04T06:54:28;13.07;;;11.00;;
8584;SDS011;7180;52.742;11.420;2024-02-04T06:56:53;12.70;;;10.90;;
8584;SDS011;7180;52.742;11.420;2024-02-04T06:59:18;12.70;;;11.37;;
8584;SDS011;7180;52.742;11.420;2024-02-04T07:01:44;12.93;;;11.57;;
8584;SDS011;7180;52.742;11.420;2024-02-04T07:04:09;11.73;;;10.70;;
8584;SDS011;7180;52.742;11.420;2024-02-04T07:06:34;12.03;;;10.93;;
8584;SDS011;7180;52.742;11.420;2024-02-04T07:09:00;12.10;;;10.83;;
8584;SDS011;7180;52.742;11.420;2024-02-04T07:11:25;13.07;;;10.77;;
8584;SDS011;7180;52.742;11.420;2024-02-04T07:13:50;11.90;;;10.83;;
8584;SDS011;7180;52.742;11.420;2024-02-04T07:16:23;11.27;;;10.23;;
8584;SDS011;7180;52.742;11.420;2024-02-04T07:18:48;12.30;;;10.13;;
8584;SDS011;7180;52.742;11.420;2024-02-04T07:21:14;11.33;;;10.33;;
8584;SDS011;7180;52.742;11.420;2024-02-04T07:23:39;10.47;;;9.57;;
8584;SDS011;7180;52.742;11.420;2024-02-04T07:26:04;11.30;;;9.87;;
8584;SDS011;7180;52.742;11.420;2024-02-04T07:28:30;11.07;;;10.03;;
8584;SDS011;7180;52.742;11.420;2024-02-04T07:30:55;11.00;;;9.93;;
8584;SDS011;7180;52.742;11.420;2024-02-04T07:33:20;10.63;;;9.63;;
8584;SDS011;7180;52.742;11.420;2024-02-04T07:35:46;10.77;;;9.77;;
8584;SDS011;7180;52.742;11.420;2024-02-04T07:38:11;11.03;;;10.03;;
8584;SDS011;7180;52.742;11.420;2024-02-04T07:40:36;10.63;;;9.63;;
8584;SDS011;7180;52.742;11.420;2024-02-04T07:43:01;11.10;;;9.90;;
8584;SDS011;7180;52.742;11.420;2024-02-04T07:45:27;11.20;;;10.00;;
8584;SDS011;7180;52.742;11.420;2024-02-04T07:47:52;10.57;;;9.50;;
8584;SDS011;7180;52.742;11.420;2024-02-04T07:50:17;10.10;;;9.10;;
8584;SDS011;7180;52.742;11.420;2024-02-04T07:52:43;10.23;;;9.23;;
8584;SDS011;7180;52.742;11.420;2024-02-04T07:55:08;11.30;;;9.30;;
8584;SDS011;7180;52.742;11.420;2024-02-04T07:57:33;10.00;;;9.20;;
8584;SDS011;7180;52.742;11.420;2024-02-04T07:59:59;9.80;;;9.00;;
8584;SDS011;7180;52.742;11.420;2024-02-04T08:02:24;9.97;;;9.10;;
8584;SDS011;7180;52.742;11.420;2024-02-04T08:04:49;9.70;;;8.80;;
8584;SDS011;7180;52.742;11.420;2024-02-04T08:07:15;9.93;;;9.00;;
8584;SDS011;7180;52.742;11.420;2024-02-04T08:09:42;9.70;;;8.80;;
8584;SDS011;7180;52.742;11.420;2024-02-04T08:12:07;9.70;;;8.73;;
8584;SDS011;7180;52.742;11.420;2024-02-04T08:14:34;10.33;;;9.40;;
8584;SDS011;7180;52.742;11.420;2024-02-04T08:16:59;9.97;;;9.10;;
8584;SDS011;7180;52.742;11.420;2024-02-04T08:19:25;9.20;;;8.60;;
8584;SDS011;7180;52.742;11.420;2024-02-04T08:21:50;9.83;;;9.07;;
8584;SDS011;7180;52.742;11.420;2024-02-04T08:24:15;10.30;;;8.93;;
8584;SDS011;7180;52.742;11.420;2024-02-04T08:26:41;9.77;;;8.90;;
8584;SDS011;7180;52.742;11.420;2024-02-04T08:29:06;9.27;;;8.57;;
8584;SDS011;7180;52.742;11.420;2024-02-04T08:31:31;9.37;;;8.67;;
8584;SDS011;7180;52.742;11.420;2024-02-04T08:33:57;9.53;;;8.83;;
8584;SDS011;7180;52.742;11.420;2024-02-04T08:36:22;9.60;;;8.87;;
8584;SDS011;7180;52.742;11.420;2024-02-04T08:38:48;9.70;;;8.90;;
8584;SDS011;7180;52.742;11.420;2024-02-04T08:41:14;10.30;;;9.40;;
8584;SDS011;7180;52.742;11.420;2024-02-04T08:43:39;10.03;;;9.23;;
8584;SDS011;7180;52.742;11.420;2024-02-04T08:46:05;10.70;;;9.80;;
8584;SDS011;7180;52.742;11.420;2024-02-04T08:48:30;11.03;;;10.03;;
8584;SDS011;7180;52.742;11.420;2024-02-04T08:50:55;12.27;;;9.60;;
8584;SDS011;7180;52.742;11.420;2024-02-04T08:53:21;10.33;;;9.50;;
8584;SDS011;7180;52.742;11.420;2024-02-04T08:55:46;10.20;;;9.40;;
8584;SDS011;7180;52.742;11.420;2024-02-04T08:58:12;9.63;;;8.80;;
8584;SDS011;7180;52.742;11.420;2024-02-04T09:00:37;10.67;;;9.57;;
8584;SDS011;7180;52.742;11.420;2024-02-04T09:03:02;11.37;;;10.37;;
8584;SDS011;7180;52.742;11.420;2024-02-04T09:05:28;11.43;;;10.43;;
8584;SDS011;7180;52.742;11.420;2024-02-04T09:07:53;10.70;;;9.80;;
8584;SDS011;7180;52.742;11.420;2024-02-04T09:10:20;12.63;;;11.43;;
8584;SDS011;7180;52.742;11.420;2024-02-04T09:12:45;11.00;;;10.07;;
8584;SDS011;7180;52.742;11.420;2024-02-04T09:15:10;11.00;;;10.00;;
8584;SDS011;7180;52.742;11.420;2024-02-04T09:17:36;9.83;;;9.13;;
8584;SDS011;7180;52.742;11.420;2024-02-04T09:20:02;11.57;;;10.57;;
8584;SDS011;7180;52.742;11.420;2024-02-04T09:22:27;11.07;;;10.27;;
8584;SDS011;7180;52.742;11.420;2024-02-04T09:24:54;11.97;;;11.03;;
8584;SDS011;7180;52.742;11.420;2024-02-04T09:27:19;12.23;;;11.00;;
8584;SDS011;7180;52.742;11.420;2024-02-04T09:29:44;11.10;;;10.10;;
8584;SDS011;7180;52.742;11.420;2024-02-04T09:32:10;9.93;;;9.13;;
8584;SDS011;7180;52.742;11.420;2024-02-04T09:34:35;10.80;;;9.90;;
8584;SDS011;7180;52.742;11.420;2024-02-04T09:37:00;9.93;;;9.23;;
8584;SDS011;7180;52.742;11.420;2024-02-04T09:39:27;12.20;;;11.10;;
8584;SDS011;7180;52.742;11.420;2024-02-04T09:41:54;11.87;;;11.07;;
8584;SDS011;7180;52.742;11.420;2024-02-04T09:44:20;10.67;;;9.77;;
8584;SDS011;7180;52.742;11.420;2024-02-04T09:46:47;10.27;;;9.47;;
8584;SDS011;7180;52.742;11.420;2024-02-04T09:49:13;10.73;;;9.73;;
8584;SDS011;7180;52.742;11.420;2024-02-04T09:51:39;11.37;;;10.47;;
8584;SDS011;7180;52.742;11.420;2024-02-04T09:54:05;12.57;;;11.53;;
8584;SDS011;7180;52.742;11.420;2024-02-04T09:56:32;16.40;;;14.83;;
8584;SDS011;7180;52.742;11.420;2024-02-04T09:58:59;16.67;;;14.37;;
8584;SDS011;7180;52.742;11.420;2024-02-04T10:01:24;13.50;;;12.20;;
8584;SDS011;7180;52.742;11.420;2024-02-04T10:03:51;12.80;;;11.43;;
8584;SDS011;7180;52.742;11.420;2024-02-04T10:06:16;13.43;;;10.97;;
8584;SDS011;7180;52.742;11.420;2024-02-04T10:08:42;11.40;;;10.33;;
8584;SDS011;7180;52.742;11.420;2024-02-04T10:11:07;11.27;;;10.17;;
8584;SDS011;7180;52.742;11.420;2024-02-04T10:13:45;10.43;;;9.73;;
8584;SDS011;7180;52.742;11.420;2024-02-04T10:16:12;10.73;;;9.70;;
8584;SDS011;7180;52.742;11.420;2024-02-04T10:18:45;10.23;;;9.43;;
8584;SDS011;7180;52.742;11.420;2024-02-04T10:21:16;10.00;;;9.20;;
8584;SDS011;7180;52.742;11.420;2024-02-04T10:23:42;10.23;;;9.30;;
8584;SDS011;7180;52.742;11.420;2024-02-04T10:26:07;10.07;;;9.27;;
8584;SDS011;7180;52.742;11.420;2024-02-04T10:28:32;10.53;;;9.63;;
8584;SDS011;7180;52.742;11.420;2024-02-04T10:30:58;12.43;;;11.23;;
8584;SDS011;7180;52.742;11.420;2024-02-04T10:33:23;11.97;;;10.77;;
8584;SDS011;7180;52.742;11.420;2024-02-04T10:35:48;14.23;;;11.37;;
8584;SDS011;7180;52.742;11.420;2024-02-04T10:38:13;18.13;;;14.13;;
8584;SDS011;7180;52.742;11.420;2024-02-04T10:40:39;15.27;;;12.43;;
8584;SDS011;7180;52.742;11.420;2024-02-04T10:43:04;14.63;;;12.77;;
8584;SDS011;7180;52.742;11.420;2024-02-04T10:45:32;22.13;;;15.87;;
8584;SDS011;7180;52.742;11.420;2024-02-04T10:48:01;12.27;;;11.10;;
8584;SDS011;7180;52.742;11.420;2024-02-04T10:50:27;11.90;;;10.83;;
8584;SDS011;7180;52.742;11.420;2024-02-04T10:52:56;12.20;;;11.00;;
8584;SDS011;7180;52.742;11.420;2024-02-04T10:55:27;11.87;;;10.63;;
8584;SDS011;7180;52.742;11.420;2024-02-04T10:57:55;10.67;;;9.67;;
8584;SDS011;7180;52.742;11.420;2024-02-04T11:00:21;10.50;;;9.60;;
8584;SDS011;7180;52.742;11.420;2024-02-04T11:02:46;10.40;;;9.60;;
8584;SDS011;7180;52.742;11.420;2024-02-04T11:05:14;10.17;;;9.37;;
8584;SDS011;7180;52.742;11.420;2024-02-04T11:07:41;10.50;;;8.80;;
8584;SDS011;7180;52.742;11.420;2024-02-04T11:10:08;11.77;;;10.70;;
8584;SDS011;7180;52.742;11.420;2024-02-04T11:12:35;11.30;;;10.13;;
8584;SDS011;7180;52.742;11.420;2024-02-04T11:15:04;10.50;;;9.70;;
8584;SDS011;7180;52.742;11.420;2024-02-04T11:17:55;9.70;;;8.90;;
8584;SDS011;7180;52.742;11.420;2024-02-04T11:20:25;9.93;;;9.00;;
8584;SDS011;7180;52.742;11.420;2024-02-04T11:25:52;10.10;;;9.30;;
8584;SDS011;7180;52.742;11.420;2024-02-04T11:28:20;10.80;;;9.90;;
8584;SDS011;7180;52.742;11.420;2024-02-04T11:30:46;10.57;;;9.60;;
8584;SDS011;7180;52.742;11.420;2024-02-04T11:33:13;10.00;;;9.17;;
8584;SDS011;7180;52.742;11.420;2024-02-04T11:35:43;9.93;;;9.10;;
8584;SDS011;7180;52.742;11.420;2024-02-04T11:38:09;10.10;;;9.20;;
8584;SDS011;7180;52.742;11.420;2024-02-04T11:40:36;11.57;;;10.57;;
8584;SDS011;7180;52.742;11.420;2024-02-04T11:43:06;11.20;;;10.20;;
8584;SDS011;7180;52.742;11.420;2024-02-04T11:45:42;12.20;;;11.00;;
8584;SDS011;7180;52.742;11.420;2024-02-04T11:48:09;11.70;;;10.80;;
8584;SDS011;7180;52.742;11.420;2024-02-04T11:50:35;11.13;;;9.77;;
8584;SDS011;7180;52.742;11.420;2024-02-04T11:53:05;12.97;;;11.67;;
8584;SDS011;7180;52.742;11.420;2024-02-04T11:55:33;10.20;;;9.20;;
8584;SDS011;7180;52.742;11.420;2024-02-04T11:57:59;11.80;;;10.33;;
8584;SDS011;7180;52.742;11.420;2024-02-04T12:00:25;15.50;;;13.90;;
8584;SDS011;7180;52.742;11.420;2024-02-04T12:03:06;11.93;;;10.77;;
8584;SDS011;7180;52.742;11.420;2024-02-04T12:05:36;12.13;;;10.90;;
8584;SDS011;7180;52.742;11.420;2024-02-04T12:08:04;11.33;;;10.13;;
8584;SDS011;7180;52.742;11.420;2024-02-04T12:10:31;10.40;;;9.43;;
8584;SDS011;7180;52.742;11.420;2024-02-04T12:13:02;10.20;;;9.30;;
8584;SDS011;7180;52.742;11.420;2024-02-04T12:15:28;10.27;;;9.30;;
8584;SDS011;7180;52.742;11.420;2024-02-04T12:17:53;9.60;;;8.70;;
8584;SDS011;7180;52.742;11.420;2024-02-04T12:20:18;9.93;;;8.90;;
8584;SDS011;7180;52.742;11.420;2024-02-04T12:22:44;9.30;;;8.47;;
8584;SDS011;7180;52.742;11.420;2024-02-04T12:25:09;9.53;;;8.73;;
8584;SDS011;7180;52.742;11.420;2024-02-04T12:27:35;10.23;;;8.80;;
8584;SDS011;7180;52.742;11.420;2024-02-04T12:30:01;9.57;;;8.67;;
8584;SDS011;7180;52.742;11.420;2024-02-04T12:32:26;10.20;;;9.20;;
8584;SDS011;7180;52.742;11.420;2024-02-04T12:34:52;11.80;;;9.07;;
8584;SDS011;7180;52.742;11.420;2024-02-04T12:37:21;11.37;;;10.20;;
8584;SDS011;7180;52.742;11.420;2024-02-04T12:39:47;15.37;;;13.57;;
8584;SDS011;7180;52.742;11.420;2024-02-04T12:42:16;13.63;;;11.97;;
8584;SDS011;7180;52.742;11.420;2024-02-04T12:44:46;10.70;;;9.70;;
8584;SDS011;7180;52.742;11.420;2024-02-04T12:47:12;10.60;;;9.67;;
8584;SDS011;7180;52.742;11.420;2024-02-04T12:49:38;11.53;;;9.30;;
8584;SDS011;7180;52.742;11.420;2024-02-04T12:52:04;9.77;;;8.93;;
8584;SDS011;7180;52.742;11.420;2024-02-04T12:54:30;9.40;;;8.60;;
8584;SDS011;7180;52.742;11.420;2024-02-04T12:56:56;10.20;;;9.20;;
8584;SDS011;7180;52.742;11.420;2024-02-04T12:59:31;9.63;;;8.80;;
8584;SDS011;7180;52.742;11.420;2024-02-04T13:02:01;10.43;;;8.70;;
8584;SDS011;7180;52.742;11.420;2024-02-04T13:04:38;10.93;;;9.03;;
8584;SDS011;7180;52.742;11.420;2024-02-04T13:07:07;9.80;;;9.00;;
8584;SDS011;7180;52.742;11.420;2024-02-04T13:09:34;9.60;;;8.70;;
8584;SDS011;7180;52.742;11.420;2024-02-04T13:12:03;9.73;;;8.73;;
8584;SDS011;7180;52.742;11.420;2024-02-04T13:14:33;9.40;;;8.60;;
8584;SDS011;7180;52.742;11.420;2024-02-04T13:16:59;9.97;;;9.07;;
8584;SDS011;7180;52.742;11.420;2024-02-04T13:19:24;10.57;;;9.70;;
8584;SDS011;7180;52.742;11.420;2024-02-04T13:21:49;10.00;;;9.10;;
8584;SDS011;7180;52.742;11.420;2024-02-04T13:24:14;11.03;;;8.80;;
8584;SDS011;7180;52.742;11.420;2024-02-04T13:26:40;12.93;;;10.03;;
8584;SDS011;7180;52.742;11.420;2024-02-04T13:29:05;10.57;;;9.67;;
8584;SDS011;7180;52.742;11.420;2024-02-04T13:31:31;11.47;;;10.57;;
8584;SDS011;7180;52.742;11.420;2024-02-04T13:33:56;10.13;;;9.33;;
8584;SDS011;7180;52.742;11.420;2024-02-04T13:36:22;10.93;;;9.93;;
8584;SDS011;7180;52.742;11.420;2024-02-04T13:38:48;11.40;;;10.33;;
8584;SDS011;7180;52.742;11.420;2024-02-04T13:41:13;14.73;;;12.30;;
8584;SDS011;7180;52.742;11.420;2024-02-04T13:43:38;21.07;;;17.67;;
8584;SDS011;7180;52.742;11.420;2024-02-04T13:46:05;12.70;;;11.27;;
8584;SDS011;7180;52.742;11.420;2024-02-04T13:48:30;10.20;;;9.30;;
8584;SDS011;7180;52.742;11.420;2024-02-04T13:50:55;10.10;;;9.07;;
8584;SDS011;7180;52.742;11.420;2024-02-04T13:53:21;9.90;;;8.87;;
8584;SDS011;7180;52.742;11.420;2024-02-04T13:55:47;9.87;;;8.87;;
8584;SDS011;7180;52.742;11.420;2024-02-04T13:58:16;10.10;;;9.10;;
8584;SDS011;7180;52.742;11.420;2024-02-04T14:00:43;10.30;;;9.33;;
8584;SDS011;7180;52.742;11.420;2024-02-04T14:03:08;9.97;;;9.10;;
8584;SDS011;7180;52.742;11.420;2024-02-04T14:05:34;12.40;;;11.20;;
8584;SDS011;7180;52.742;11.420;2024-02-04T14:07:59;10.93;;;9.93;;
8584;SDS011;7180;52.742;11.420;2024-02-04T14:10:24;10.50;;;9.50;;
8584;SDS011;7180;52.742;11.420;2024-02-04T14:12:49;10.43;;;9.63;;
8584;SDS011;7180;52.742;11.420;2024-02-04T14:15:15;9.63;;;8.80;;
8584;SDS011;7180;52.742;11.420;2024-02-04T14:17:41;10.37;;;9.57;;
8584;SDS011;7180;52.742;11.420;2024-02-04T14:20:07;11.70;;;10.63;;
8584;SDS011;7180;52.742;11.420;2024-02-04T14:22:32;11.07;;;10.07;;
8584;SDS011;7180;52.742;11.420;2024-02-04T14:24:58;11.20;;;10.13;;
8584;SDS011;7180;52.742;11.420;2024-02-04T14:27:25;10.33;;;9.60;;
8584;SDS011;7180;52.742;11.420;2024-02-04T14:29:50;10.67;;;9.83;;
8584;SDS011;7180;52.742;11.420;2024-02-04T14:32:15;9.90;;;9.00;;
8584;SDS011;7180;52.742;11.420;2024-02-04T14:34:41;10.20;;;9.30;;
8584;SDS011;7180;52.742;11.420;2024-02-04T14:37:07;10.03;;;9.33;;
8584;SDS011;7180;52.742;11.420;2024-02-04T14:39:33;10.33;;;9.37;;
8584;SDS011;7180;52.742;11.420;2024-02-04T14:41:58;9.90;;;9.00;;